Time;durP1;ratioP1;P1;durP2;ratioP2;P2;SDS_P1;SDS_P2;PMS_P1;PMS_P2;Temp;Humidity;BMP_temperature;BMP_pressure;BME280_temperature;BME280_humidity;BME280_pressure;Samples;Min_cycle;Max_cycle;Signal;HPM_P1;HPM_P2
2022/05/14 00:03:55;;;;;;;9.00;3.93;;;;;;;11.70;99.89;100332.88;713958;1174;115264;-76
2022/05/14 00:18:59;;;;;;;8.07;4.20;;;;;;;11.82;99.91;100344.91;713765;1174;117855;-74
2022/05/14 00:34:02;;;;;;;4.53;3.38;;;;;;;11.94;100.00;100342.09;713644;1174;115373;-74
2022/05/14 00:49:04;;;;;;;19.35;9.98;;;;;;;11.96;100.00;100329.68;713701;1173;115870;-74
2022/05/14 01:04:10;;;;;;;7.00;4.50;;;;;;;11.87;100.00;100315.55;713835;1174;115540;-73
2022/05/14 01:19:12;;;;;;;5.47;3.70;;;;;;;11.81;100.00;100313.48;712928;1174;115934;-73
2022/05/14 01:34:23;;;;;;;5.27;3.10;;;;;;;11.88;100.00;100308.52;713116;1174;115885;-74
2022/05/14 01:49:25;;;;;;;7.43;3.53;;;;;;;11.92;100.00;100302.81;713130;1174;115748;-74
2022/05/14 02:04:27;;;;;;;6.53;3.40;;;;;;;11.91;100.00;100292.45;713228;1167;114811;-74
2022/05/14 02:19:30;;;;;;;8.53;4.58;;;;;;;12.04;100.00;100284.27;713051;1174;115826;-74
2022/05/14 02:34:32;;;;;;;5.50;3.70;;;;;;;12.14;100.00;100300.81;713219;1174;115727;-75
2022/05/14 02:49:35;;;;;;;6.30;4.58;;;;;;;12.24;100.00;100292.89;713117;1173;115696;-73
2022/05/14 03:04:39;;;;;;;4.95;3.88;;;;;;;12.28;100.00;100310.04;713134;1174;116127;-74
2022/05/14 03:19:42;;;;;;;7.27;4.20;;;;;;;12.23;100.00;100312.27;713070;1174;115968;-74
2022/05/14 03:34:45;;;;;;;10.43;5.13;;;;;;;12.28;100.00;100307.41;713241;1174;117770;-74
2022/05/14 03:49:47;;;;;;;6.63;3.60;;;;;;;12.30;100.00;100273.91;713070;1174;115650;-73
2022/05/14 04:04:49;;;;;;;4.40;3.40;;;;;;;12.45;100.00;100251.37;713190;1174;113741;-73
2022/05/14 04:19:54;;;;;;;7.25;3.88;;;;;;;12.72;100.00;100236.52;713108;1174;114782;-76
2022/05/14 04:34:57;;;;;;;7.88;3.78;;;;;;;12.92;98.90;100236.34;713607;1174;114975;-76
2022/05/14 04:49:59;;;;;;;7.98;3.23;;;;;;;13.20;97.14;100265.23;713133;1174;115388;-75
2022/05/14 05:05:01;;;;;;;8.93;3.85;;;;;;;13.65;95.10;100269.52;713456;1174;115623;-74
2022/05/14 05:20:05;;;;;;;7.20;3.20;;;;;;;13.92;93.85;100255.33;713538;1174;114826;-76
2022/05/14 05:35:08;;;;;;;8.70;3.05;;;;;;;14.04;92.99;100274.34;713741;1174;115570;-75
2022/05/14 05:50:11;;;;;;;6.08;3.18;;;;;;;14.25;90.99;100265.17;713090;1174;114162;-75
2022/05/14 06:05:15;;;;;;;9.90;2.80;;;;;;;14.61;88.54;100263.13;713756;1174;114214;-80
2022/05/14 06:20:19;;;;;;;8.50;2.75;;;;;;;15.04;86.60;100270.14;714028;1173;115005;-81
2022/05/14 06:35:21;;;;;;;9.48;3.20;;;;;;;15.51;81.05;100265.99;713782;1174;115030;-80
2022/05/14 06:50:25;;;;;;;10.50;2.90;;;;;;;15.42;75.92;100255.41;713943;1174;115342;-74
2022/05/14 07:20:49;;;;;;;9.53;2.70;;;;;;;15.63;71.94;100265.45;713920;1174;115075;-76
2022/05/14 07:35:57;;;;;;;6.05;3.10;;;;;;;16.31;71.60;100246.53;714329;1174;114118;-76
2022/05/14 07:51:02;;;;;;;15.05;6.20;;;;;;;16.79;70.37;100247.23;713740;1174;114788;-75
2022/05/14 08:06:06;;;;;;;13.15;3.78;;;;;;;17.10;69.28;100243.73;714013;1174;115663;-76
2022/05/14 08:36:29;;;;;;;7.80;2.77;;;;;;;17.87;66.18;100240.94;714037;1174;114950;-76
2022/05/14 08:51:36;;;;;;;8.87;3.10;;;;;;;18.24;65.17;100231.23;713848;1174;114720;-76
2022/05/14 09:06:40;;;;;;;13.53;5.73;;;;;;;18.22;64.06;100233.24;713779;1174;115919;-76
2022/05/14 09:21:57;;;;;;;12.50;3.90;;;;;;;17.60;63.69;100251.19;713925;1174;114333;-77
2022/05/14 09:37:12;;;;;;;9.57;3.30;;;;;;;17.59;64.83;100241.58;713969;1174;114358;-77
2022/05/14 09:52:24;;;;;;;11.98;5.00;;;;;;;18.17;64.24;100239.09;714058;1174;115722;-72
2022/05/14 10:07:36;;;;;;;11.33;3.57;;;;;;;17.22;64.88;100265.33;713611;1174;115248;-73
2022/05/14 10:38:24;;;;;;;9.05;4.00;;;;;;;17.21;67.26;100284.03;713763;1174;115064;-73
2022/05/14 10:53:27;;;;;;;10.50;3.53;;;;;;;17.85;66.91;100280.92;714105;1174;114853;-72
2022/05/14 11:08:34;;;;;;;24.73;7.33;;;;;;;17.90;67.22;100283.05;713777;1174;115745;-74
2022/05/14 11:23:55;;;;;;;10.38;3.80;;;;;;;18.11;65.40;100274.37;714115;1174;115347;-74
2022/05/14 11:39:06;;;;;;;9.07;3.27;;;;;;;17.57;66.35;100309.91;713616;1174;115125;-75
2022/05/14 11:54:15;;;;;;;14.67;4.30;;;;;;;18.25;67.34;100307.20;713786;1174;114656;-72
2022/05/14 12:09:25;;;;;;;9.67;4.10;;;;;;;18.46;66.42;100299.30;713679;1174;114692;-72
2022/05/14 12:24:31;;;;;;;14.67;5.07;;;;;;;17.55;66.16;100323.36;713964;1174;115455;-72
2022/05/14 12:39:34;;;;;;;10.60;5.65;;;;;;;16.97;71.45;100338.87;715144;1174;114343;-75
2022/05/14 12:54:48;;;;;;;7.63;3.40;;;;;;;18.70;70.31;100331.85;714548;1174;114277;-77
2022/05/14 13:09:52;;;;;;;14.43;7.57;;;;;;;18.59;68.65;100340.30;714010;1174;114869;-78
2022/05/14 13:25:01;;;;;;;13.93;8.27;;;;;;;18.72;68.94;100321.84;714087;1174;115249;-74
2022/05/14 13:40:07;;;;;;;8.45;4.70;;;;;;;19.38;67.31;100320.86;713594;1174;115702;-73
2022/05/14 13:55:16;;;;;;;13.80;5.10;;;;;;;18.85;63.45;100315.04;714811;1174;115646;-73
2022/05/14 14:10:22;;;;;;;14.35;5.20;;;;;;;19.37;62.07;100316.55;717827;1174;114987;-73
2022/05/14 14:25:24;;;;;;;30.40;11.20;;;;;;;22.39;59.32;100296.66;716355;1174;115017;-74
2022/05/14 14:40:28;;;;;;;15.80;8.10;;;;;;;20.14;60.17;100302.53;713277;1174;116109;-73
2022/05/14 14:55:31;;;;;;;17.97;6.60;;;;;;;20.60;60.67;100305.38;713557;1174;114955;-74
2022/05/14 15:10:34;;;;;;;11.28;7.15;;;;;;;20.94;58.78;100308.97;713346;1174;115354;-74
2022/05/14 15:25:37;;;;;;;14.35;4.93;;;;;;;20.24;57.77;100308.31;713547;1174;115778;-72
2022/05/14 15:40:45;;;;;;;24.57;8.90;;;;;;;20.46;57.96;100309.02;713736;1174;115728;-72
2022/05/14 15:55:49;;;;;;;8.33;2.80;;;;;;;19.69;59.01;100322.33;713175;1174;115869;-73
2022/05/14 16:26:15;;;;;;;6.45;4.00;;;;;;;19.79;59.91;100300.68;713354;1173;116160;-74
2022/05/14 16:41:18;;;;;;;20.18;11.85;;;;;;;19.53;59.63;100296.84;713321;1174;114764;-74
2022/05/14 16:56:23;;;;;;;22.05;11.13;;;;;;;18.81;59.90;100305.80;713502;1174;114525;-75
2022/05/14 17:11:25;;;;;;;19.40;9.13;;;;;;;18.57;61.00;100307.80;713288;1174;117073;-73
2022/05/14 17:26:27;;;;;;;15.57;7.40;;;;;;;18.61;60.74;100309.07;714426;1174;115904;-72
2022/05/14 17:41:36;;;;;;;26.93;11.53;;;;;;;18.73;61.18;100310.21;713342;1174;115097;-73
2022/05/14 17:56:39;;;;;;;9.17;3.23;;;;;;;18.34;61.14;100337.95;713480;1174;114792;-73
2022/05/14 18:11:49;;;;;;;10.33;4.00;;;;;;;17.71;61.63;100346.25;713590;1174;115131;-73
2022/05/14 18:27:03;;;;;;;12.98;4.40;;;;;;;17.08;61.76;100364.16;713456;1174;115363;-74
2022/05/14 18:42:08;;;;;;;9.68;3.50;;;;;;;16.72;62.90;100377.89;713551;1174;114394;-74
2022/05/14 18:57:13;;;;;;;73.05;55.65;;;;;;;16.27;63.07;100381.07;713278;1174;114906;-74
2022/05/14 19:12:19;;;;;;;13.43;7.20;;;;;;;15.79;64.07;100406.59;713588;1174;115971;-79
2022/05/14 19:27:24;;;;;;;16.48;5.45;;;;;;;15.35;64.44;100409.53;713571;1174;115424;-80
2022/05/14 19:42:34;;;;;;;25.70;8.93;;;;;;;15.01;66.58;100429.78;713480;1174;114339;-79
2022/05/14 19:57:38;;;;;;;21.07;6.70;;;;;;;14.78;67.65;100440.09;713351;1174;114325;-76
2022/05/14 20:12:41;;;;;;;19.80;5.58;;;;;;;14.87;68.66;100448.89;713314;1174;114480;-77
2022/05/14 20:27:44;;;;;;;15.63;4.10;;;;;;;14.72;68.30;100453.95;713612;1174;115736;-78
2022/05/14 20:42:47;;;;;;;10.33;4.17;;;;;;;14.36;68.81;100459.31;713694;1174;114495;-78
2022/05/14 20:57:50;;;;;;;9.07;3.33;;;;;;;14.10;68.97;100457.52;713416;1174;115361;-80
2022/05/14 21:12:53;;;;;;;5.88;2.23;;;;;;;13.90;69.91;100467.43;713346;1173;114719;-79
2022/05/14 21:27:56;;;;;;;5.08;1.70;;;;;;;13.80;70.35;100463.06;713221;1174;114988;-79
2022/05/14 21:43:18;;;;;;;6.00;2.43;;;;;;;13.70;69.95;100462.31;713634;1174;115479;-74
2022/05/14 21:58:43;;;;;;;4.90;1.93;;;;;;;13.50;69.07;100476.61;714829;1174;115251;-79
2022/05/14 22:13:47;;;;;;;4.93;1.83;;;;;;;13.37;69.33;100482.23;713964;1174;114877;-76
2022/05/14 22:28:49;;;;;;;7.05;1.40;;;;;;;13.05;69.68;100473.81;713742;1174;114898;-76
2022/05/14 22:43:52;;;;;;;6.85;2.08;;;;;;;12.75;71.07;100490.72;713558;1174;114205;-75
2022/05/14 22:58:54;;;;;;;4.40;1.75;;;;;;;12.43;72.42;100492.75;714208;1174;114175;-75
2022/05/14 23:13:57;;;;;;;6.50;2.80;;;;;;;12.20;73.24;100486.15;716430;1173;114096;-74
2022/05/14 23:28:59;;;;;;;6.63;2.00;;;;;;;11.86;74.40;100474.23;715557;1174;115385;-74
2022/05/14 23:44:03;;;;;;;4.48;1.60;;;;;;;11.66;75.05;100483.91;715070;1174;114708;-74
